Hlavní strana
METAR-TAF:

METAR-TAF

Letiště :

Dakar, Senegal

zeměpisná šířka: 14-44N, zeměpisná délka: 017-30W, výška: 27 m

Aktuální stav počasí

Zpráva byla vytvořena před 52 minutami, v 10:00 UTC
Severozápadní vítr 4 kt
Teplota 27°C
Vlhkost vzduchu 74%
Tlak 1011 hPa
Viditelnost 10 km a více
Polojasno ve výšce 1300 ft
Polojasno ve výšce 13000 ft

METAR: GOOY 221000Z 32004KT 9999 SCT013 SCT130 27/22 Q1011

Čas: 10:52 (10:52 UTC)

Předpověď počasí

Zpráva byla vytvořena před 5 hodinami a 22 minutami, v 05:30 UTC
Předpověď platná od 22 v 06 UTC do 23 v 12 UTC
Západní vítr 8 kt
Viditelnost 10 km a více
Polojasno ve výšce 1300 ft

TAF: GOOY 220530Z 2206/2312 28008KT 9999 SCT013

Stav a předpovědi počasí z více než 4 000 letišť (zprávy METAR a TAF).

Červené a žluté tečky na mapě představují dostupné meteorologické stanice.

Když kurzor umístíte na tečku, zobrazí se název stanice.

Pak kliknutím zobrazíte stav a předpověď počasí.

Chcete-li změnit mapu, kliknutím na zelené tlačítko se znaménkem +mapu přiblížíte, kliknutím na zelené tlačítko se znaménkem – mapu oddálíte a kliknutím na zelené šipky přejdete na sousední mapy.


METAR-TAF: